PWSweather.com
Personal Weather Stations
Station Observations
TENMILE2
Watts Bar Lake, Ten Mile, TN 37880

Watts Bar LakeTen Mile, TN 37880

Lat: 35.686, Lon: -84.7068

Elevation: 767

Station Type: Davis Vue

http://www.wattsbarweather.org

High Low Average
Temperature 43.4°F6.3°C 35.9°F2.2°C 38.2°F3.4°C
Dew Point 34.4°F1.3°C 27.4°F-2.6°C 30.4°F-0.9°C
Winds 5.8 mph 9.3 kmh Calm Calm 2.0 mph WSW3.2 kmh WSW
Wind Gusts 18.0 mph29.0 kmh 1.5 mph2.4 kmh 8.0 mph12.9 kmh
Humidity 90% 62% 73%
Pressure 30.09 in1019.0 mb 29.75 in1007.5 mb -
Precipitation 0.01 in0.3 mm - -
Hour Temp Dew Point Humidity Winds Wind Gusts Pressure Precip Precip Rate Daily Precip Total
12:02 AM 43.4°F6.3°C 32.1°F0.1°C 64% 1.6 mph SW2.6 kmh SW 7.5 mph12.1 kmh 29.75 in1007.5 mb 0.00 in0.0 mm 0.00 in0.0 mm 0.00 in0.0 mm
12:07 AM 43.3°F6.3°C 31.9°F-0.1°C 64% 1.3 mph NW2.1 kmh NW 7.5 mph12.1 kmh 29.75 in1007.5 mb 0.00 in0.0 mm 0.00 in0.0 mm 0.00 in0.0 mm
12:12 AM 43.3°F6.3°C 32.0°F0.0°C 64% 2.8 mph SSW4.5 kmh SSW 6.0 mph9.7 kmh 29.75 in1007.5 mb 0.00 in0.0 mm 0.00 in0.0 mm 0.00 in0.0 mm
12:17 AM 43.3°F6.3°C 31.6°F-0.2°C 63% 1.9 mph WSW3.1 kmh WSW 6.0 mph9.7 kmh 29.75 in1007.5 mb 0.00 in0.0 mm 0.00 in0.0 mm 0.00 in0.0 mm
12:22 AM 43.2°F6.2°C 31.1°F-0.5°C 62% 2.9 mph WSW4.7 kmh WSW 7.5 mph12.1 kmh 29.75 in1007.5 mb 0.00 in0.0 mm 0.00 in0.0 mm 0.00 in0.0 mm
12:27 AM 43.2°F6.2°C 31.9°F-0.1°C 64% 2.2 mph W3.5 kmh W 7.5 mph12.1 kmh 29.75 in1007.5 mb 0.00 in0.0 mm 0.00 in0.0 mm 0.00 in0.0 mm
12:32 AM 43.1°F6.2°C 32.1°F0.1°C 65% 1.8 mph WSW2.9 kmh WSW 7.5 mph12.1 kmh 29.75 in1007.5 mb 0.00 in0.0 mm 0.00 in0.0 mm 0.00 in0.0 mm
12:37 AM 43.1°F6.2°C 32.1°F0.1°C 65% 3.0 mph SW4.8 kmh SW 7.5 mph12.1 kmh 29.75 in1007.5 mb 0.00 in0.0 mm 0.00 in0.0 mm 0.00 in0.0 mm
12:42 AM 43.1°F6.2°C 31.8°F-0.1°C 64% 3.8 mph SW6.1 kmh SW 10.5 mph16.9 kmh 29.75 in1007.5 mb 0.00 in0.0 mm 0.00 in0.0 mm 0.00 in0.0 mm
12:47 AM 43.1°F6.2°C 32.2°F0.1°C 65% 1.9 mph WSW3.1 kmh WSW 10.5 mph16.9 kmh 29.75 in1007.5 mb 0.00 in0.0 mm 0.00 in0.0 mm 0.00 in0.0 mm
12:52 AM 43.0°F6.1°C 32.1°F0.1°C 65% 2.2 mph W3.5 kmh W 10.5 mph16.9 kmh 29.75 in1007.5 mb 0.00 in0.0 mm 0.00 in0.0 mm 0.00 in0.0 mm
12:57 AM 43.0°F6.1°C 32.1°F0.1°C 65% 1.9 mph SW3.1 kmh SW 10.5 mph16.9 kmh 29.76 in1007.8 mb 0.00 in0.0 mm 0.00 in0.0 mm 0.00 in0.0 mm
01:02 AM 42.9°F6.1°C 32.0°F0.0°C 65% 2.5 mph SW4.0 kmh SW 7.5 mph12.1 kmh 29.76 in1007.8 mb 0.00 in0.0 mm 0.00 in0.0 mm 0.00 in0.0 mm
01:07 AM 42.8°F6.0°C 31.9°F-0.1°C 65% 2.8 mph SSW4.5 kmh SSW 7.5 mph12.1 kmh 29.76 in1007.8 mb 0.00 in0.0 mm 0.00 in0.0 mm 0.00 in0.0 mm
01:12 AM 42.8°F6.0°C 31.5°F-0.3°C 64% 2.5 mph SW4.0 kmh SW 12.0 mph19.3 kmh 29.76 in1007.8 mb 0.00 in0.0 mm 0.00 in0.0 mm 0.00 in0.0 mm
01:17 AM 42.7°F5.9°C 31.8°F-0.1°C 65% 2.3 mph S3.7 kmh S 12.0 mph19.3 kmh 29.76 in1007.8 mb 0.00 in0.0 mm 0.00 in0.0 mm 0.00 in0.0 mm
01:22 AM 42.6°F5.9°C 32.1°F0.1°C 66% 1.6 mph NW2.6 kmh NW 12.0 mph19.3 kmh 29.77 in1008.1 mb 0.00 in0.0 mm 0.00 in0.0 mm 0.00 in0.0 mm
01:27 AM 42.6°F5.9°C 32.5°F0.3°C 67% 1.6 mph WSW2.6 kmh WSW 12.0 mph19.3 kmh 29.77 in1008.1 mb 0.00 in0.0 mm 0.00 in0.0 mm 0.00 in0.0 mm
01:32 AM 42.4°F5.8°C 32.3°F0.2°C 67% 1.6 mph W2.6 kmh W 4.5 mph7.2 kmh 29.77 in1008.1 mb 0.00 in0.0 mm 0.00 in0.0 mm 0.00 in0.0 mm
01:37 AM 42.4°F5.8°C 32.7°F0.4°C 68% 2.1 mph SW3.4 kmh SW 7.5 mph12.1 kmh 29.77 in1008.1 mb 0.00 in0.0 mm 0.00 in0.0 mm 0.00 in0.0 mm
01:42 AM 42.3°F5.7°C 32.6°F0.3°C 68% 1.8 mph WSW2.9 kmh WSW 9.0 mph14.5 kmh 29.78 in1008.5 mb 0.00 in0.0 mm 0.00 in0.0 mm 0.00 in0.0 mm
01:47 AM 42.2°F5.7°C 32.1°F0.1°C 67% 3.0 mph SW4.8 kmh SW 9.0 mph14.5 kmh 29.78 in1008.5 mb 0.00 in0.0 mm 0.00 in0.0 mm 0.00 in0.0 mm
01:52 AM 42.2°F5.7°C 32.1°F0.1°C 67% 2.4 mph S3.9 kmh S 9.0 mph14.5 kmh 29.78 in1008.5 mb 0.00 in0.0 mm 0.00 in0.0 mm 0.00 in0.0 mm
01:57 AM 42.0°F5.6°C 32.3°F0.2°C 68% 1.3 mph NE2.1 kmh NE 9.0 mph14.5 kmh 29.78 in1008.5 mb 0.00 in0.0 mm 0.00 in0.0 mm 0.00 in0.0 mm
02:02 AM 41.9°F5.5°C 32.2°F0.1°C 68% 1.8 mph S2.9 kmh S 9.0 mph14.5 kmh 29.78 in1008.5 mb 0.00 in0.0 mm 0.00 in0.0 mm 0.00 in0.0 mm
02:07 AM 41.9°F5.5°C 32.2°F0.1°C 68% 2.5 mph WSW4.0 kmh WSW 7.5 mph12.1 kmh 29.78 in1008.5 mb 0.00 in0.0 mm 0.00 in0.0 mm 0.00 in0.0 mm
02:12 AM 41.8°F5.4°C 32.1°F0.1°C 68% 2.4 mph SW3.9 kmh SW 9.0 mph14.5 kmh 29.78 in1008.5 mb 0.00 in0.0 mm 0.00 in0.0 mm 0.00 in0.0 mm
02:17 AM 41.8°F5.4°C 31.7°F-0.2°C 67% 2.1 mph SW3.4 kmh SW 9.0 mph14.5 kmh 29.78 in1008.5 mb 0.00 in0.0 mm 0.00 in0.0 mm 0.00 in0.0 mm
02:22 AM 41.7°F5.4°C 32.4°F0.2°C 69% 1.6 mph WNW2.6 kmh WNW 9.0 mph14.5 kmh 29.78 in1008.5 mb 0.00 in0.0 mm 0.00 in0.0 mm 0.00 in0.0 mm
02:27 AM 41.6°F5.3°C 31.9°F-0.1°C 68% 2.5 mph S4.0 kmh S 9.0 mph14.5 kmh 29.78 in1008.5 mb 0.00 in0.0 mm 0.00 in0.0 mm 0.00 in0.0 mm
02:32 AM 41.5°F5.3°C 32.2°F0.1°C 69% 1.5 mph WSW2.4 kmh WSW 9.0 mph14.5 kmh 29.78 in1008.5 mb 0.00 in0.0 mm 0.00 in0.0 mm 0.00 in0.0 mm
02:37 AM 41.5°F5.3°C 32.2°F0.1°C 69% 3.1 mph WSW5.0 kmh WSW 9.0 mph14.5 kmh 29.78 in1008.5 mb 0.00 in0.0 mm 0.00 in0.0 mm 0.00 in0.0 mm
02:43 AM 41.4°F5.2°C 32.8°F0.4°C 71% 2.7 mph SW4.3 kmh SW 10.5 mph16.9 kmh 29.78 in1008.5 mb 0.00 in0.0 mm 0.00 in0.0 mm 0.00 in0.0 mm
02:48 AM 41.3°F5.2°C 33.0°F0.6°C 72% 2.0 mph WSW3.2 kmh WSW 10.5 mph16.9 kmh 29.78 in1008.5 mb 0.00 in0.0 mm 0.00 in0.0 mm 0.00 in0.0 mm
02:53 AM 41.2°F5.1°C 32.9°F0.5°C 72% 4.2 mph SW6.8 kmh SW 9.0 mph14.5 kmh 29.78 in1008.5 mb 0.00 in0.0 mm 0.00 in0.0 mm 0.00 in0.0 mm
02:58 AM 40.9°F4.9°C 32.6°F0.3°C 72% 2.5 mph SW4.0 kmh SW 9.0 mph14.5 kmh 29.78 in1008.5 mb 0.00 in0.0 mm 0.00 in0.0 mm 0.00 in0.0 mm
03:03 AM 40.7°F4.8°C 32.4°F0.2°C 72% 2.7 mph SW4.3 kmh SW 9.0 mph14.5 kmh 29.79 in1008.8 mb 0.00 in0.0 mm 0.00 in0.0 mm 0.00 in0.0 mm
03:08 AM 40.5°F4.7°C 32.9°F0.5°C 74% 2.4 mph WSW3.9 kmh WSW 9.0 mph14.5 kmh 29.79 in1008.8 mb 0.00 in0.0 mm 0.00 in0.0 mm 0.00 in0.0 mm
03:13 AM 40.4°F4.7°C 33.2°F0.7°C 75% 2.1 mph SW3.4 kmh SW 9.0 mph14.5 kmh 29.79 in1008.8 mb 0.00 in0.0 mm 0.00 in0.0 mm 0.00 in0.0 mm
03:18 AM 40.3°F4.6°C 33.4°F0.8°C 76% 1.6 mph WSW2.6 kmh WSW 9.0 mph14.5 kmh 29.80 in1009.1 mb 0.00 in0.0 mm 0.00 in0.0 mm 0.00 in0.0 mm
03:23 AM 40.2°F4.6°C 33.3°F0.7°C 76% 2.5 mph WNW4.0 kmh WNW 9.0 mph14.5 kmh 29.80 in1009.1 mb 0.00 in0.0 mm 0.00 in0.0 mm 0.00 in0.0 mm
03:28 AM 40.2°F4.6°C 33.3°F0.7°C 76% 1.6 mph WSW2.6 kmh WSW 9.0 mph14.5 kmh 29.80 in1009.1 mb 0.00 in0.0 mm 0.00 in0.0 mm 0.00 in0.0 mm
03:33 AM 40.1°F4.5°C 33.8°F1.0°C 78% 1.4 mph W2.3 kmh W 6.0 mph9.7 kmh 29.80 in1009.1 mb 0.00 in0.0 mm 0.00 in0.0 mm 0.00 in0.0 mm
03:39 AM 39.6°F4.2°C 34.0°F1.1°C 80% 2.6 mph NNW4.2 kmh NNW 10.5 mph16.9 kmh 29.80 in1009.1 mb 0.00 in0.0 mm 0.00 in0.0 mm 0.00 in0.0 mm
03:44 AM 39.0°F3.9°C 34.3°F1.3°C 83% 3.8 mph NNW6.1 kmh NNW 10.5 mph16.9 kmh 29.81 in1009.5 mb 0.00 in0.0 mm 0.00 in0.0 mm 0.00 in0.0 mm
03:49 AM 38.5°F3.6°C 34.4°F1.3°C 85% 1.9 mph NNW3.1 kmh NNW 10.5 mph16.9 kmh 29.80 in1009.1 mb 0.00 in0.0 mm 0.00 in0.0 mm 0.00 in0.0 mm
03:54 AM 38.1°F3.4°C 34.3°F1.3°C 86% Calm Calm 10.5 mph16.9 kmh 29.81 in1009.5 mb 0.00 in0.0 mm 0.00 in0.0 mm 0.00 in0.0 mm
03:59 AM 37.8°F3.2°C 34.2°F1.2°C 87% 1.3 mph WSW2.1 kmh WSW 9.0 mph14.5 kmh 29.81 in1009.5 mb 0.00 in0.0 mm 0.00 in0.0 mm 0.00 in0.0 mm
04:04 AM 37.6°F3.1°C 34.3°F1.3°C 88% 1.6 mph W2.6 kmh W 4.5 mph7.2 kmh 29.81 in1009.5 mb 0.00 in0.0 mm 0.00 in0.0 mm 0.00 in0.0 mm
04:09 AM 37.4°F3.0°C 34.4°F1.3°C 89% Calm Calm 4.5 mph7.2 kmh 29.81 in1009.5 mb 0.01 in0.3 mm 0.12 in3.0 mm 0.01 in0.3 mm
04:14 AM 37.3°F2.9°C 34.3°F1.3°C 89% 1.7 mph SW2.7 kmh SW 4.5 mph7.2 kmh 29.81 in1009.5 mb 0.01 in0.3 mm 0.00 in0.0 mm 0.01 in0.3 mm
04:19 AM 36.9°F2.7°C 33.6°F0.9°C 88% 3.2 mph SW5.1 kmh SW 7.5 mph12.1 kmh 29.81 in1009.5 mb 0.01 in0.3 mm 0.00 in0.0 mm 0.01 in0.3 mm
04:24 AM 36.9°F2.7°C 33.9°F1.1°C 89% 1.3 mph S2.1 kmh S 7.5 mph12.1 kmh 29.82 in1009.8 mb 0.01 in0.3 mm 0.00 in0.0 mm 0.01 in0.3 mm
04:29 AM 36.7°F2.6°C 33.7°F0.9°C 89% 1.3 mph SW2.1 kmh SW 7.5 mph12.1 kmh 29.82 in1009.8 mb 0.01 in0.3 mm 0.00 in0.0 mm 0.01 in0.3 mm
04:34 AM 36.7°F2.6°C 34.0°F1.1°C 90% 1.3 mph SW2.1 kmh SW 7.5 mph12.1 kmh 29.82 in1009.8 mb 0.01 in0.3 mm 0.00 in0.0 mm 0.01 in0.3 mm
04:39 AM 36.7°F2.6°C 34.0°F1.1°C 90% 1.3 mph WSW2.1 kmh WSW 3.0 mph4.8 kmh 29.82 in1009.8 mb 0.01 in0.3 mm 0.00 in0.0 mm 0.01 in0.3 mm
04:44 AM 36.7°F2.6°C 34.0°F1.1°C 90% 1.3 mph W2.1 kmh W 3.0 mph4.8 kmh 29.82 in1009.8 mb 0.01 in0.3 mm 0.00 in0.0 mm 0.01 in0.3 mm
04:49 AM 36.7°F2.6°C 34.0°F1.1°C 90% 1.5 mph WSW2.4 kmh WSW 3.0 mph4.8 kmh 29.82 in1009.8 mb 0.01 in0.3 mm 0.00 in0.0 mm 0.01 in0.3 mm
04:54 AM 36.8°F2.7°C 34.1°F1.2°C 90% 3.1 mph WSW5.0 kmh WSW 4.5 mph7.2 kmh 29.82 in1009.8 mb 0.01 in0.3 mm 0.00 in0.0 mm 0.01 in0.3 mm
04:59 AM 36.9°F2.7°C 33.9°F1.1°C 89% 1.3 mph WSW2.1 kmh WSW 4.5 mph7.2 kmh 29.83 in1010.2 mb 0.01 in0.3 mm 0.00 in0.0 mm 0.01 in0.3 mm
05:04 AM 37.0°F2.8°C 33.5°F0.8°C 87% 1.7 mph W2.7 kmh W 7.5 mph12.1 kmh 29.83 in1010.2 mb 0.01 in0.3 mm 0.00 in0.0 mm 0.01 in0.3 mm
05:09 AM 37.1°F2.8°C 33.6°F0.9°C 87% 1.9 mph WSW3.1 kmh WSW 7.5 mph12.1 kmh 29.83 in1010.2 mb 0.00 in0.0 mm 0.00 in0.0 mm 0.01 in0.3 mm
05:14 AM 37.1°F2.8°C 33.6°F0.9°C 87% 1.3 mph WSW2.1 kmh WSW 6.0 mph9.7 kmh 29.83 in1010.2 mb 0.00 in0.0 mm 0.00 in0.0 mm 0.01 in0.3 mm
05:19 AM 37.1°F2.8°C 33.6°F0.9°C 87% 1.3 mph W2.1 kmh W 6.0 mph9.7 kmh 29.83 in1010.2 mb 0.00 in0.0 mm 0.00 in0.0 mm 0.01 in0.3 mm
05:24 AM 37.1°F2.8°C 33.3°F0.7°C 86% 1.3 mph ENE2.1 kmh ENE 6.0 mph9.7 kmh 29.84 in1010.5 mb 0.00 in0.0 mm 0.00 in0.0 mm 0.01 in0.3 mm
05:29 AM 37.1°F2.8°C 33.3°F0.7°C 86% Calm Calm 4.5 mph7.2 kmh 29.84 in1010.5 mb 0.00 in0.0 mm 0.00 in0.0 mm 0.01 in0.3 mm
05:34 AM 37.0°F2.8°C 33.2°F0.7°C 86% Calm Calm 4.5 mph7.2 kmh 29.84 in1010.5 mb 0.00 in0.0 mm 0.00 in0.0 mm 0.01 in0.3 mm
05:39 AM 36.9°F2.7°C 33.1°F0.6°C 86% 1.3 mph NW2.1 kmh NW 4.5 mph7.2 kmh 29.84 in1010.5 mb 0.00 in0.0 mm 0.00 in0.0 mm 0.01 in0.3 mm
05:44 AM 36.9°F2.7°C 33.1°F0.6°C 86% 1.3 mph SW2.1 kmh SW 3.0 mph4.8 kmh 29.84 in1010.5 mb 0.00 in0.0 mm 0.00 in0.0 mm 0.01 in0.3 mm
05:49 AM 36.9°F2.7°C 33.1°F0.6°C 86% Calm Calm 1.5 mph2.4 kmh 29.85 in1010.8 mb 0.00 in0.0 mm 0.00 in0.0 mm 0.01 in0.3 mm
05:54 AM 36.8°F2.7°C 33.0°F0.6°C 86% 2.6 mph SW4.2 kmh SW 4.5 mph7.2 kmh 29.85 in1010.8 mb 0.00 in0.0 mm 0.00 in0.0 mm 0.01 in0.3 mm
05:59 AM 36.8°F2.7°C 33.0°F0.6°C 86% 1.9 mph WSW3.1 kmh WSW 4.5 mph7.2 kmh 29.85 in1010.8 mb 0.00 in0.0 mm 0.00 in0.0 mm 0.01 in0.3 mm
06:04 AM 36.8°F2.7°C 32.7°F0.4°C 85% 2.0 mph WNW3.2 kmh WNW 4.5 mph7.2 kmh 29.85 in1010.8 mb 0.00 in0.0 mm 0.00 in0.0 mm 0.01 in0.3 mm
06:09 AM 36.7°F2.6°C 32.3°F0.2°C 84% 1.3 mph WSW2.1 kmh WSW 7.5 mph12.1 kmh 29.86 in1011.2 mb 0.00 in0.0 mm 0.00 in0.0 mm 0.01 in0.3 mm
06:14 AM 36.6°F2.6°C 32.2°F0.1°C 84% Calm Calm 7.5 mph12.1 kmh 29.86 in1011.2 mb 0.00 in0.0 mm 0.00 in0.0 mm 0.01 in0.3 mm
06:19 AM 36.4°F2.4°C 32.0°F0.0°C 84% 1.3 mph WSW2.1 kmh WSW 7.5 mph12.1 kmh 29.86 in1011.2 mb 0.00 in0.0 mm 0.00 in0.0 mm 0.01 in0.3 mm
06:24 AM 36.3°F2.4°C 31.9°F-0.1°C 84% 1.3 mph WSW2.1 kmh WSW 7.5 mph12.1 kmh 29.87 in1011.5 mb 0.00 in0.0 mm 0.00 in0.0 mm 0.01 in0.3 mm
06:29 AM 36.3°F2.4°C 31.6°F-0.2°C 83% 1.8 mph ESE2.9 kmh ESE 4.5 mph7.2 kmh 29.87 in1011.5 mb 0.00 in0.0 mm 0.00 in0.0 mm 0.01 in0.3 mm
06:34 AM 36.4°F2.4°C 31.7°F-0.2°C 83% 1.3 mph SW2.1 kmh SW 10.5 mph16.9 kmh 29.88 in1011.9 mb 0.00 in0.0 mm 0.00 in0.0 mm 0.01 in0.3 mm
06:39 AM 36.4°F2.4°C 31.7°F-0.2°C 83% 1.4 mph WNW2.3 kmh WNW 10.5 mph16.9 kmh 29.88 in1011.9 mb 0.00 in0.0 mm 0.00 in0.0 mm 0.01 in0.3 mm
06:44 AM 36.4°F2.4°C 31.7°F-0.2°C 83% Calm Calm 10.5 mph16.9 kmh 29.88 in1011.9 mb 0.00 in0.0 mm 0.00 in0.0 mm 0.01 in0.3 mm
06:49 AM 36.4°F2.4°C 31.7°F-0.2°C 83% 1.3 mph W2.1 kmh W 10.5 mph16.9 kmh 29.89 in1012.2 mb 0.00 in0.0 mm 0.00 in0.0 mm 0.01 in0.3 mm
06:54 AM 36.5°F2.5°C 31.8°F-0.1°C 83% 1.3 mph W2.1 kmh W 7.5 mph12.1 kmh 29.89 in1012.2 mb 0.00 in0.0 mm 0.00 in0.0 mm 0.01 in0.3 mm
06:59 AM 36.6°F2.6°C 31.9°F-0.1°C 83% 2.6 mph SW4.2 kmh SW 7.5 mph12.1 kmh 29.89 in1012.2 mb 0.00 in0.0 mm 0.00 in0.0 mm 0.01 in0.3 mm
07:04 AM 36.6°F2.6°C 31.6°F-0.2°C 82% 2.0 mph WNW3.2 kmh WNW 7.5 mph12.1 kmh 29.89 in1012.2 mb 0.00 in0.0 mm 0.00 in0.0 mm 0.01 in0.3 mm
07:09 AM 36.5°F2.5°C 30.9°F-0.6°C 80% 2.6 mph WSW4.2 kmh WSW 12.0 mph19.3 kmh 29.90 in1012.5 mb 0.00 in0.0 mm 0.00 in0.0 mm 0.01 in0.3 mm
07:14 AM 36.4°F2.4°C 30.5°F-0.8°C 79% 1.4 mph NW2.3 kmh NW 12.0 mph19.3 kmh 29.90 in1012.5 mb 0.00 in0.0 mm 0.00 in0.0 mm 0.01 in0.3 mm
07:19 AM 36.3°F2.4°C 30.7°F-0.7°C 80% 1.6 mph WSW2.6 kmh WSW 12.0 mph19.3 kmh 29.90 in1012.5 mb 0.00 in0.0 mm 0.00 in0.0 mm 0.01 in0.3 mm
07:24 AM 36.0°F2.2°C 30.1°F-1.1°C 79% 1.9 mph WSW3.1 kmh WSW 12.0 mph19.3 kmh 29.90 in1012.5 mb 0.00 in0.0 mm 0.00 in0.0 mm 0.01 in0.3 mm
07:29 AM 36.0°F2.2°C 30.1°F-1.1°C 79% 1.8 mph N2.9 kmh N 7.5 mph12.1 kmh 29.90 in1012.5 mb 0.00 in0.0 mm 0.00 in0.0 mm 0.01 in0.3 mm
07:34 AM 35.9°F2.2°C 29.7°F-1.3°C 78% 3.5 mph SSW5.6 kmh SSW 9.0 mph14.5 kmh 29.91 in1012.9 mb 0.00 in0.0 mm 0.00 in0.0 mm 0.01 in0.3 mm
07:39 AM 36.0°F2.2°C 29.8°F-1.2°C 78% 2.7 mph SW4.3 kmh SW 9.0 mph14.5 kmh 29.91 in1012.9 mb 0.00 in0.0 mm 0.00 in0.0 mm 0.01 in0.3 mm
07:44 AM 36.0°F2.2°C 29.8°F-1.2°C 78% 2.4 mph SE3.9 kmh SE 9.0 mph14.5 kmh 29.91 in1012.9 mb 0.00 in0.0 mm 0.00 in0.0 mm 0.01 in0.3 mm
07:49 AM 36.1°F2.3°C 29.9°F-1.2°C 78% 1.8 mph NNE2.9 kmh NNE 9.0 mph14.5 kmh 29.91 in1012.9 mb 0.00 in0.0 mm 0.00 in0.0 mm 0.01 in0.3 mm
07:54 AM 36.1°F2.3°C 29.6°F-1.3°C 77% 1.5 mph W2.4 kmh W 7.5 mph12.1 kmh 29.92 in1013.2 mb 0.00 in0.0 mm 0.00 in0.0 mm 0.01 in0.3 mm
07:59 AM 36.3°F2.4°C 29.8°F-1.2°C 77% Calm Calm 7.5 mph12.1 kmh 29.92 in1013.2 mb 0.00 in0.0 mm 0.00 in0.0 mm 0.01 in0.3 mm
08:04 AM 36.3°F2.4°C 29.8°F-1.2°C 77% 1.3 mph E2.1 kmh E 6.0 mph9.7 kmh 29.92 in1013.2 mb 0.00 in0.0 mm 0.00 in0.0 mm 0.01 in0.3 mm
08:09 AM 36.3°F2.4°C 30.1°F-1.1°C 78% 2.6 mph S4.2 kmh S 6.0 mph9.7 kmh 29.92 in1013.2 mb 0.00 in0.0 mm 0.00 in0.0 mm 0.01 in0.3 mm
08:14 AM 36.5°F2.5°C 30.6°F-0.8°C 79% 2.6 mph SSW4.2 kmh SSW 7.5 mph12.1 kmh 29.92 in1013.2 mb 0.00 in0.0 mm 0.00 in0.0 mm 0.01 in0.3 mm
08:19 AM 36.5°F2.5°C 30.3°F-0.9°C 78% 1.5 mph SSE2.4 kmh SSE 7.5 mph12.1 kmh 29.93 in1013.5 mb 0.00 in0.0 mm 0.00 in0.0 mm 0.01 in0.3 mm
08:24 AM 36.6°F2.6°C 30.7°F-0.7°C 79% 1.4 mph WSW2.3 kmh WSW 7.5 mph12.1 kmh 29.93 in1013.5 mb 0.00 in0.0 mm 0.00 in0.0 mm 0.01 in0.3 mm
08:29 AM 36.7°F2.6°C 31.1°F-0.5°C 80% Calm Calm 7.5 mph12.1 kmh 29.93 in1013.5 mb 0.00 in0.0 mm 0.00 in0.0 mm 0.01 in0.3 mm
08:35 AM 36.6°F2.6°C 30.1°F-1.1°C 77% 2.0 mph W3.2 kmh W 6.0 mph9.7 kmh 29.93 in1013.5 mb 0.00 in0.0 mm 0.00 in0.0 mm 0.01 in0.3 mm
08:40 AM 36.8°F2.7°C 30.6°F-0.8°C 78% 1.9 mph W3.1 kmh W 6.0 mph9.7 kmh 29.94 in1013.9 mb 0.00 in0.0 mm 0.00 in0.0 mm 0.01 in0.3 mm
08:45 AM 37.3°F2.9°C 31.1°F-0.5°C 78% 2.6 mph S4.2 kmh S 7.5 mph12.1 kmh 29.94 in1013.9 mb 0.00 in0.0 mm 0.00 in0.0 mm 0.01 in0.3 mm
08:50 AM 37.5°F3.1°C 31.0°F-0.6°C 77% 1.7 mph S2.7 kmh S 7.5 mph12.1 kmh 29.94 in1013.9 mb 0.00 in0.0 mm 0.00 in0.0 mm 0.01 in0.3 mm
08:55 AM 37.5°F3.1°C 30.7°F-0.7°C 76% 2.2 mph SW3.5 kmh SW 7.5 mph12.1 kmh 29.94 in1013.9 mb 0.00 in0.0 mm 0.00 in0.0 mm 0.01 in0.3 mm
09:00 AM 37.6°F3.1°C 31.1°F-0.5°C 77% 4.3 mph WSW6.9 kmh WSW 10.5 mph16.9 kmh 29.94 in1013.9 mb 0.00 in0.0 mm 0.00 in0.0 mm 0.01 in0.3 mm
09:05 AM 38.0°F3.3°C 30.8°F-0.7°C 75% 2.3 mph SSW3.7 kmh SSW 10.5 mph16.9 kmh 29.95 in1014.2 mb 0.00 in0.0 mm 0.00 in0.0 mm 0.01 in0.3 mm
09:10 AM 38.5°F3.6°C 31.6°F-0.2°C 76% 1.8 mph W2.9 kmh W 9.0 mph14.5 kmh 29.95 in1014.2 mb 0.00 in0.0 mm 0.00 in0.0 mm 0.01 in0.3 mm
09:15 AM 38.7°F3.7°C 30.5°F-0.8°C 72% 2.9 mph WNW4.7 kmh WNW 9.0 mph14.5 kmh 29.95 in1014.2 mb 0.00 in0.0 mm 0.00 in0.0 mm 0.01 in0.3 mm
09:20 AM 38.5°F3.6°C 31.0°F-0.6°C 74% 1.9 mph WSW3.1 kmh WSW 6.0 mph9.7 kmh 29.96 in1014.6 mb 0.00 in0.0 mm 0.00 in0.0 mm 0.01 in0.3 mm
09:25 AM 38.9°F3.8°C 31.0°F-0.6°C 73% 4.0 mph NNW6.4 kmh NNW 12.0 mph19.3 kmh 29.95 in1014.2 mb 0.00 in0.0 mm 0.00 in0.0 mm 0.01 in0.3 mm
09:30 AM 39.1°F3.9°C 30.6°F-0.8°C 71% 4.5 mph NNW7.2 kmh NNW 12.0 mph19.3 kmh 29.94 in1013.9 mb 0.00 in0.0 mm 0.00 in0.0 mm 0.01 in0.3 mm
09:35 AM 39.3°F4.1°C 30.4°F-0.9°C 70% 1.6 mph WSW2.6 kmh WSW 12.0 mph19.3 kmh 29.95 in1014.2 mb 0.00 in0.0 mm 0.00 in0.0 mm 0.01 in0.3 mm
09:40 AM 39.5°F4.2°C 30.6°F-0.8°C 70% 2.3 mph WSW3.7 kmh WSW 10.5 mph16.9 kmh 29.95 in1014.2 mb 0.00 in0.0 mm 0.00 in0.0 mm 0.01 in0.3 mm
09:45 AM 39.6°F4.2°C 30.3°F-0.9°C 69% 1.8 mph W2.9 kmh W 10.5 mph16.9 kmh 29.96 in1014.6 mb 0.00 in0.0 mm 0.00 in0.0 mm 0.01 in0.3 mm
09:50 AM 39.4°F4.1°C 30.5°F-0.8°C 70% 1.9 mph NW3.1 kmh NW 10.5 mph16.9 kmh 29.97 in1014.9 mb 0.00 in0.0 mm 0.00 in0.0 mm 0.01 in0.3 mm
09:55 AM 39.3°F4.1°C 30.1°F-1.1°C 69% 1.8 mph WSW2.9 kmh WSW 10.5 mph16.9 kmh 29.96 in1014.6 mb 0.00 in0.0 mm 0.00 in0.0 mm 0.01 in0.3 mm
10:00 AM 39.0°F3.9°C 29.8°F-1.2°C 69% 2.8 mph NW4.5 kmh NW 10.5 mph16.9 kmh 29.97 in1014.9 mb 0.00 in0.0 mm 0.00 in0.0 mm 0.01 in0.3 mm
10:05 AM 38.9°F3.8°C 30.4°F-0.9°C 71% 2.7 mph N4.3 kmh N 10.5 mph16.9 kmh 29.97 in1014.9 mb 0.00 in0.0 mm 0.00 in0.0 mm 0.01 in0.3 mm
10:10 AM 38.8°F3.8°C 30.6°F-0.8°C 72% 2.0 mph WNW3.2 kmh WNW 9.0 mph14.5 kmh 29.98 in1015.2 mb 0.00 in0.0 mm 0.00 in0.0 mm 0.01 in0.3 mm
10:15 AM 38.6°F3.7°C 30.4°F-0.9°C 72% 2.3 mph SW3.7 kmh SW 9.0 mph14.5 kmh 29.97 in1014.9 mb 0.00 in0.0 mm 0.00 in0.0 mm 0.01 in0.3 mm
10:20 AM 38.3°F3.5°C 30.5°F-0.8°C 73% 3.3 mph WSW5.3 kmh WSW 7.5 mph12.1 kmh 29.99 in1015.6 mb 0.00 in0.0 mm 0.00 in0.0 mm 0.01 in0.3 mm
10:25 AM 37.8°F3.2°C 30.6°F-0.8°C 75% 2.3 mph SSW3.7 kmh SSW 7.5 mph12.1 kmh 29.99 in1015.6 mb 0.00 in0.0 mm 0.00 in0.0 mm 0.01 in0.3 mm
10:30 AM 37.7°F3.2°C 30.5°F-0.8°C 75% 3.7 mph SW6.0 kmh SW 7.5 mph12.1 kmh 29.99 in1015.6 mb 0.00 in0.0 mm 0.00 in0.0 mm 0.01 in0.3 mm
10:35 AM 37.7°F3.2°C 29.9°F-1.2°C 73% 1.9 mph W3.1 kmh W 7.5 mph12.1 kmh 30.00 in1015.9 mb 0.00 in0.0 mm 0.00 in0.0 mm 0.01 in0.3 mm
10:40 AM 37.9°F3.3°C 30.1°F-1.1°C 73% 2.0 mph SSW3.2 kmh SSW 7.5 mph12.1 kmh 30.00 in1015.9 mb 0.00 in0.0 mm 0.00 in0.0 mm 0.01 in0.3 mm
10:45 AM 37.9°F3.3°C 30.1°F-1.1°C 73% 2.6 mph SW4.2 kmh SW 10.5 mph16.9 kmh 29.99 in1015.6 mb 0.00 in0.0 mm 0.00 in0.0 mm 0.01 in0.3 mm
10:50 AM 37.9°F3.3°C 29.4°F-1.4°C 71% 2.6 mph SW4.2 kmh SW 10.5 mph16.9 kmh 30.00 in1015.9 mb 0.00 in0.0 mm 0.00 in0.0 mm 0.01 in0.3 mm
10:55 AM 38.0°F3.3°C 29.8°F-1.2°C 72% 1.9 mph WNW3.1 kmh WNW 10.5 mph16.9 kmh 30.00 in1015.9 mb 0.00 in0.0 mm 0.00 in0.0 mm 0.01 in0.3 mm
11:00 AM 38.0°F3.3°C 30.2°F-1.0°C 73% 2.8 mph SW4.5 kmh SW 10.5 mph16.9 kmh 30.00 in1015.9 mb 0.00 in0.0 mm 0.00 in0.0 mm 0.01 in0.3 mm
11:05 AM 37.9°F3.3°C 30.4°F-0.9°C 74% 5.1 mph SSW8.2 kmh SSW 10.5 mph16.9 kmh 30.00 in1015.9 mb 0.00 in0.0 mm 0.00 in0.0 mm 0.01 in0.3 mm
11:10 AM 37.8°F3.2°C 29.6°F-1.3°C 72% 3.8 mph S6.1 kmh S 15.0 mph24.1 kmh 30.00 in1015.9 mb 0.00 in0.0 mm 0.00 in0.0 mm 0.01 in0.3 mm
11:15 AM 37.9°F3.3°C 30.1°F-1.1°C 73% 2.3 mph WSW3.7 kmh WSW 15.0 mph24.1 kmh 30.00 in1015.9 mb 0.00 in0.0 mm 0.00 in0.0 mm 0.01 in0.3 mm
11:20 AM 38.2°F3.4°C 30.7°F-0.7°C 74% 1.3 mph S2.1 kmh S 15.0 mph24.1 kmh 30.00 in1015.9 mb 0.00 in0.0 mm 0.00 in0.0 mm 0.01 in0.3 mm
11:25 AM 38.7°F3.7°C 30.2°F-1.0°C 71% 1.7 mph WSW2.7 kmh WSW 15.0 mph24.1 kmh 30.00 in1015.9 mb 0.00 in0.0 mm 0.00 in0.0 mm 0.01 in0.3 mm
11:30 AM 38.6°F3.7°C 31.4°F-0.3°C 75% 3.0 mph W4.8 kmh W 10.5 mph16.9 kmh 30.01 in1016.3 mb 0.00 in0.0 mm 0.00 in0.0 mm 0.01 in0.3 mm
11:35 AM 37.9°F3.3°C 31.4°F-0.3°C 77% 2.8 mph N4.5 kmh N 10.5 mph16.9 kmh 30.00 in1015.9 mb 0.00 in0.0 mm 0.00 in0.0 mm 0.01 in0.3 mm
11:40 AM 37.6°F3.1°C 31.4°F-0.3°C 78% 1.6 mph WNW2.6 kmh WNW 10.5 mph16.9 kmh 30.00 in1015.9 mb 0.00 in0.0 mm 0.00 in0.0 mm 0.01 in0.3 mm
11:45 AM 38.2°F3.4°C 31.7°F-0.2°C 77% 2.1 mph WNW3.4 kmh WNW 10.5 mph16.9 kmh 30.00 in1015.9 mb 0.00 in0.0 mm 0.00 in0.0 mm 0.01 in0.3 mm
11:50 AM 39.0°F3.9°C 31.1°F-0.5°C 73% 1.8 mph NW2.9 kmh NW 7.5 mph12.1 kmh 30.00 in1015.9 mb 0.00 in0.0 mm 0.00 in0.0 mm 0.01 in0.3 mm
11:55 AM 38.9°F3.8°C 30.4°F-0.9°C 71% 1.8 mph WSW2.9 kmh WSW 7.5 mph12.1 kmh 30.00 in1015.9 mb 0.00 in0.0 mm 0.00 in0.0 mm 0.01 in0.3 mm
12:00 PM 38.8°F3.8°C 29.6°F-1.3°C 69% 3.5 mph NNW5.6 kmh NNW 10.5 mph16.9 kmh 30.00 in1015.9 mb 0.00 in0.0 mm 0.00 in0.0 mm 0.01 in0.3 mm
12:06 PM 38.7°F3.7°C 30.2°F-1.0°C 71% 1.9 mph NW3.1 kmh NW 10.5 mph16.9 kmh 30.00 in1015.9 mb 0.00 in0.0 mm 0.00 in0.0 mm 0.01 in0.3 mm
12:10 PM 38.9°F3.8°C 30.4°F-0.9°C 71% 1.7 mph SW2.7 kmh SW 9.0 mph14.5 kmh 30.00 in1015.9 mb 0.00 in0.0 mm 0.00 in0.0 mm 0.01 in0.3 mm
12:16 PM 39.0°F3.9°C 29.8°F-1.2°C 69% 1.9 mph WSW3.1 kmh WSW 9.0 mph14.5 kmh 30.00 in1015.9 mb 0.00 in0.0 mm 0.00 in0.0 mm 0.01 in0.3 mm
12:20 PM 39.0°F3.9°C 29.8°F-1.2°C 69% 2.3 mph NNW3.7 kmh NNW 6.0 mph9.7 kmh 30.00 in1015.9 mb 0.00 in0.0 mm 0.00 in0.0 mm 0.01 in0.3 mm
12:26 PM 38.8°F3.8°C 29.9°F-1.2°C 70% 3.3 mph W5.3 kmh W 9.0 mph14.5 kmh 30.00 in1015.9 mb 0.00 in0.0 mm 0.00 in0.0 mm 0.01 in0.3 mm
12:31 PM 38.7°F3.7°C 30.5°F-0.8°C 72% 2.2 mph NW3.5 kmh NW 9.0 mph14.5 kmh 30.00 in1015.9 mb 0.00 in0.0 mm 0.00 in0.0 mm 0.01 in0.3 mm
12:36 PM 38.6°F3.7°C 31.1°F-0.5°C 74% 1.7 mph WSW2.7 kmh WSW 9.0 mph14.5 kmh 30.00 in1015.9 mb 0.00 in0.0 mm 0.00 in0.0 mm 0.01 in0.3 mm
12:41 PM 38.9°F3.8°C 31.0°F-0.6°C 73% 2.3 mph WSW3.7 kmh WSW 9.0 mph14.5 kmh 30.01 in1016.3 mb 0.00 in0.0 mm 0.00 in0.0 mm 0.01 in0.3 mm
12:46 PM 39.8°F4.3°C 31.6°F-0.2°C 72% 3.1 mph SW5.0 kmh SW 9.0 mph14.5 kmh 30.00 in1015.9 mb 0.00 in0.0 mm 0.00 in0.0 mm 0.01 in0.3 mm
12:51 PM 40.0°F4.4°C 30.4°F-0.9°C 68% 2.4 mph NW3.9 kmh NW 9.0 mph14.5 kmh 30.01 in1016.3 mb 0.00 in0.0 mm 0.00 in0.0 mm 0.01 in0.3 mm
12:56 PM 39.7°F4.3°C 30.4°F-0.9°C 69% 2.0 mph NNE3.2 kmh NNE 9.0 mph14.5 kmh 30.01 in1016.3 mb 0.00 in0.0 mm 0.00 in0.0 mm 0.01 in0.3 mm
01:01 PM 39.4°F4.1°C 30.2°F-1.0°C 69% 2.8 mph NW4.5 kmh NW 9.0 mph14.5 kmh 30.01 in1016.3 mb 0.00 in0.0 mm 0.00 in0.0 mm 0.01 in0.3 mm
01:06 PM 39.1°F3.9°C 29.9°F-1.2°C 69% 2.5 mph NW4.0 kmh NW 7.5 mph12.1 kmh 30.01 in1016.3 mb 0.00 in0.0 mm 0.00 in0.0 mm 0.01 in0.3 mm
01:11 PM 38.9°F3.8°C 29.6°F-1.3°C 69% 1.3 mph SW2.1 kmh SW 7.5 mph12.1 kmh 30.01 in1016.3 mb 0.00 in0.0 mm 0.00 in0.0 mm 0.01 in0.3 mm
01:16 PM 39.0°F3.9°C 29.0°F-1.7°C 67% 1.9 mph WNW3.1 kmh WNW 7.5 mph12.1 kmh 30.01 in1016.3 mb 0.00 in0.0 mm 0.00 in0.0 mm 0.01 in0.3 mm
01:21 PM 39.0°F3.9°C 29.0°F-1.7°C 67% 1.8 mph SW2.9 kmh SW 7.5 mph12.1 kmh 30.00 in1015.9 mb 0.00 in0.0 mm 0.00 in0.0 mm 0.01 in0.3 mm
01:26 PM 39.1°F3.9°C 28.8°F-1.8°C 66% 2.5 mph SSE4.0 kmh SSE 10.5 mph16.9 kmh 30.01 in1016.3 mb 0.00 in0.0 mm 0.00 in0.0 mm 0.01 in0.3 mm
01:31 PM 39.2°F4.0°C 28.9°F-1.7°C 66% 2.0 mph W3.2 kmh W 10.5 mph16.9 kmh 30.01 in1016.3 mb 0.00 in0.0 mm 0.00 in0.0 mm 0.01 in0.3 mm
01:36 PM 39.1°F3.9°C 29.1°F-1.6°C 67% 2.9 mph WSW4.7 kmh WSW 9.0 mph14.5 kmh 30.01 in1016.3 mb 0.00 in0.0 mm 0.00 in0.0 mm 0.01 in0.3 mm
01:41 PM 39.1°F3.9°C 29.1°F-1.6°C 67% 3.1 mph WSW5.0 kmh WSW 9.0 mph14.5 kmh 30.01 in1016.3 mb 0.00 in0.0 mm 0.00 in0.0 mm 0.01 in0.3 mm
01:46 PM 39.0°F3.9°C 29.0°F-1.7°C 67% 2.4 mph NW3.9 kmh NW 9.0 mph14.5 kmh 30.01 in1016.3 mb 0.00 in0.0 mm 0.00 in0.0 mm 0.01 in0.3 mm
01:51 PM 38.8°F3.8°C 28.9°F-1.7°C 67% 2.1 mph W3.4 kmh W 9.0 mph14.5 kmh 30.01 in1016.3 mb 0.00 in0.0 mm 0.00 in0.0 mm 0.01 in0.3 mm
01:56 PM 38.6°F3.7°C 29.3°F-1.5°C 69% 1.6 mph E2.6 kmh E 7.5 mph12.1 kmh 30.01 in1016.3 mb 0.00 in0.0 mm 0.00 in0.0 mm 0.01 in0.3 mm
02:01 PM 38.4°F3.6°C 28.8°F-1.8°C 68% 2.7 mph NW4.3 kmh NW 7.5 mph12.1 kmh 30.01 in1016.3 mb 0.00 in0.0 mm 0.00 in0.0 mm 0.01 in0.3 mm
02:06 PM 38.2°F3.4°C 29.0°F-1.7°C 69% 3.4 mph WSW5.5 kmh WSW 10.5 mph16.9 kmh 30.01 in1016.3 mb 0.00 in0.0 mm 0.00 in0.0 mm 0.01 in0.3 mm
02:11 PM 38.1°F3.4°C 28.9°F-1.7°C 69% 2.2 mph SW3.5 kmh SW 10.5 mph16.9 kmh 30.01 in1016.3 mb 0.00 in0.0 mm 0.00 in0.0 mm 0.01 in0.3 mm
02:16 PM 38.3°F3.5°C 29.1°F-1.6°C 69% 1.6 mph NW2.6 kmh NW 10.5 mph16.9 kmh 30.01 in1016.3 mb 0.00 in0.0 mm 0.00 in0.0 mm 0.01 in0.3 mm
02:21 PM 38.4°F3.6°C 29.5°F-1.4°C 70% 1.3 mph S2.1 kmh S 10.5 mph16.9 kmh 30.01 in1016.3 mb 0.00 in0.0 mm 0.00 in0.0 mm 0.01 in0.3 mm
02:26 PM 38.5°F3.6°C 29.6°F-1.3°C 70% 1.3 mph W2.1 kmh W 10.5 mph16.9 kmh 30.01 in1016.3 mb 0.00 in0.0 mm 0.00 in0.0 mm 0.01 in0.3 mm
02:31 PM 38.5°F3.6°C 29.3°F-1.5°C 69% 1.7 mph NNE2.7 kmh NNE 4.5 mph7.2 kmh 30.01 in1016.3 mb 0.00 in0.0 mm 0.00 in0.0 mm 0.01 in0.3 mm
02:36 PM 38.5°F3.6°C 28.9°F-1.7°C 68% 1.4 mph SW2.3 kmh SW 4.5 mph7.2 kmh 30.01 in1016.3 mb 0.00 in0.0 mm 0.00 in0.0 mm 0.01 in0.3 mm
02:41 PM 38.5°F3.6°C 28.9°F-1.7°C 68% 2.6 mph N4.2 kmh N 6.0 mph9.7 kmh 30.01 in1016.3 mb 0.00 in0.0 mm 0.00 in0.0 mm 0.01 in0.3 mm
02:46 PM 38.5°F3.6°C 28.9°F-1.7°C 68% 1.5 mph SSE2.4 kmh SSE 6.0 mph9.7 kmh 30.01 in1016.3 mb 0.00 in0.0 mm 0.00 in0.0 mm 0.01 in0.3 mm
02:51 PM 38.6°F3.7°C 29.7°F-1.3°C 70% 2.5 mph WNW4.0 kmh WNW 6.0 mph9.7 kmh 30.01 in1016.3 mb 0.00 in0.0 mm 0.00 in0.0 mm 0.01 in0.3 mm
02:56 PM 38.7°F3.7°C 29.5°F-1.4°C 69% 1.6 mph WSW2.6 kmh WSW 6.0 mph9.7 kmh 30.01 in1016.3 mb 0.00 in0.0 mm 0.00 in0.0 mm 0.01 in0.3 mm
03:01 PM 38.8°F3.8°C 29.9°F-1.2°C 70% 2.6 mph SW4.2 kmh SW 6.0 mph9.7 kmh 30.01 in1016.3 mb 0.00 in0.0 mm 0.00 in0.0 mm 0.01 in0.3 mm
03:06 PM 38.9°F3.8°C 30.0°F-1.1°C 70% 1.3 mph WSW2.1 kmh WSW 6.0 mph9.7 kmh 30.02 in1016.6 mb 0.00 in0.0 mm 0.00 in0.0 mm 0.01 in0.3 mm
03:11 PM 38.9°F3.8°C 29.2°F-1.6°C 68% 3.5 mph SW5.6 kmh SW 9.0 mph14.5 kmh 30.02 in1016.6 mb 0.00 in0.0 mm 0.00 in0.0 mm 0.01 in0.3 mm
03:16 PM 38.9°F3.8°C 29.6°F-1.3°C 69% 1.3 mph WSW2.1 kmh WSW 9.0 mph14.5 kmh 30.02 in1016.6 mb 0.00 in0.0 mm 0.00 in0.0 mm 0.01 in0.3 mm
03:21 PM 38.9°F3.8°C 29.3°F-1.5°C 68% 2.7 mph WSW4.3 kmh WSW 9.0 mph14.5 kmh 30.02 in1016.6 mb 0.00 in0.0 mm 0.00 in0.0 mm 0.01 in0.3 mm
03:26 PM 38.9°F3.8°C 29.7°F-1.3°C 69% 2.5 mph NW4.0 kmh NW 9.0 mph14.5 kmh 30.02 in1016.6 mb 0.00 in0.0 mm 0.00 in0.0 mm 0.01 in0.3 mm
03:31 PM 39.0°F3.9°C 29.8°F-1.2°C 69% 3.0 mph WSW4.8 kmh WSW 9.0 mph14.5 kmh 30.03 in1016.9 mb 0.00 in0.0 mm 0.00 in0.0 mm 0.01 in0.3 mm
03:36 PM 38.9°F3.8°C 29.7°F-1.3°C 69% 1.7 mph WSW2.7 kmh WSW 9.0 mph14.5 kmh 30.03 in1016.9 mb 0.00 in0.0 mm 0.00 in0.0 mm 0.01 in0.3 mm
03:41 PM 38.8°F3.8°C 29.6°F-1.3°C 69% 1.5 mph SSW2.4 kmh SSW 9.0 mph14.5 kmh 30.03 in1016.9 mb 0.00 in0.0 mm 0.00 in0.0 mm 0.01 in0.3 mm
03:46 PM 38.6°F3.7°C 29.4°F-1.4°C 69% 1.4 mph NNW2.3 kmh NNW 9.0 mph14.5 kmh 30.03 in1016.9 mb 0.00 in0.0 mm 0.00 in0.0 mm 0.01 in0.3 mm
03:51 PM 38.5°F3.6°C 30.0°F-1.1°C 71% 1.5 mph W2.4 kmh W 12.0 mph19.3 kmh 30.03 in1016.9 mb 0.00 in0.0 mm 0.00 in0.0 mm 0.01 in0.3 mm
03:56 PM 38.4°F3.6°C 30.2°F-1.0°C 72% 2.0 mph NW3.2 kmh NW 12.0 mph19.3 kmh 30.03 in1016.9 mb 0.00 in0.0 mm 0.00 in0.0 mm 0.01 in0.3 mm
04:01 PM 38.3°F3.5°C 30.1°F-1.1°C 72% 1.3 mph E2.1 kmh E 12.0 mph19.3 kmh 30.04 in1017.3 mb 0.00 in0.0 mm 0.00 in0.0 mm 0.01 in0.3 mm
04:06 PM 38.2°F3.4°C 29.3°F-1.5°C 70% 2.1 mph W3.4 kmh W 12.0 mph19.3 kmh 30.04 in1017.3 mb 0.00 in0.0 mm 0.00 in0.0 mm 0.01 in0.3 mm
04:11 PM 38.1°F3.4°C 29.5°F-1.4°C 71% 1.9 mph SW3.1 kmh SW 6.0 mph9.7 kmh 30.04 in1017.3 mb 0.00 in0.0 mm 0.00 in0.0 mm 0.01 in0.3 mm
04:16 PM 38.0°F3.3°C 29.8°F-1.2°C 72% 1.4 mph W2.3 kmh W 6.0 mph9.7 kmh 30.05 in1017.6 mb 0.00 in0.0 mm 0.00 in0.0 mm 0.01 in0.3 mm
04:21 PM 38.0°F3.3°C 29.5°F-1.4°C 71% 1.6 mph NW2.6 kmh NW 6.0 mph9.7 kmh 30.04 in1017.3 mb 0.00 in0.0 mm 0.00 in0.0 mm 0.01 in0.3 mm
04:26 PM 37.9°F3.3°C 29.4°F-1.4°C 71% 2.3 mph SW3.7 kmh SW 6.0 mph9.7 kmh 30.04 in1017.3 mb 0.00 in0.0 mm 0.00 in0.0 mm 0.01 in0.3 mm
04:31 PM 37.8°F3.2°C 29.0°F-1.7°C 70% 2.3 mph WSW3.7 kmh WSW 6.0 mph9.7 kmh 30.04 in1017.3 mb 0.00 in0.0 mm 0.00 in0.0 mm 0.01 in0.3 mm
04:36 PM 37.8°F3.2°C 29.0°F-1.7°C 70% 2.3 mph W3.7 kmh W 6.0 mph9.7 kmh 30.04 in1017.3 mb 0.00 in0.0 mm 0.00 in0.0 mm 0.01 in0.3 mm
04:41 PM 37.7°F3.2°C 28.9°F-1.7°C 70% 2.0 mph SW3.2 kmh SW 6.0 mph9.7 kmh 30.04 in1017.3 mb 0.00 in0.0 mm 0.00 in0.0 mm 0.01 in0.3 mm
04:46 PM 37.7°F3.2°C 29.2°F-1.6°C 71% 1.3 mph SSW2.1 kmh SSW 6.0 mph9.7 kmh 30.04 in1017.3 mb 0.00 in0.0 mm 0.00 in0.0 mm 0.01 in0.3 mm
04:51 PM 37.6°F3.1°C 28.8°F-1.8°C 70% 1.8 mph S2.9 kmh S 6.0 mph9.7 kmh 30.04 in1017.3 mb 0.00 in0.0 mm 0.00 in0.0 mm 0.01 in0.3 mm
04:56 PM 37.6°F3.1°C 29.5°F-1.4°C 72% 1.3 mph W2.1 kmh W 6.0 mph9.7 kmh 30.04 in1017.3 mb 0.00 in0.0 mm 0.00 in0.0 mm 0.01 in0.3 mm
05:01 PM 37.6°F3.1°C 29.8°F-1.2°C 73% 1.5 mph SW2.4 kmh SW 4.5 mph7.2 kmh 30.04 in1017.3 mb 0.00 in0.0 mm 0.00 in0.0 mm 0.01 in0.3 mm
05:07 PM 37.5°F3.1°C 29.0°F-1.7°C 71% 1.4 mph SSW2.3 kmh SSW 4.5 mph7.2 kmh 30.04 in1017.3 mb 0.00 in0.0 mm 0.00 in0.0 mm 0.01 in0.3 mm
05:11 PM 37.5°F3.1°C 29.4°F-1.4°C 72% 1.3 mph WNW2.1 kmh WNW 3.0 mph4.8 kmh 30.04 in1017.3 mb 0.00 in0.0 mm 0.00 in0.0 mm 0.01 in0.3 mm
05:17 PM 37.5°F3.1°C 29.4°F-1.4°C 72% 1.5 mph W2.4 kmh W 3.0 mph4.8 kmh 30.05 in1017.6 mb 0.00 in0.0 mm 0.00 in0.0 mm 0.01 in0.3 mm
05:22 PM 37.5°F3.1°C 28.7°F-1.8°C 70% 1.8 mph SW2.9 kmh SW 4.5 mph7.2 kmh 30.05 in1017.6 mb 0.00 in0.0 mm 0.00 in0.0 mm 0.01 in0.3 mm
05:27 PM 37.5°F3.1°C 28.7°F-1.8°C 70% 2.5 mph SW4.0 kmh SW 6.0 mph9.7 kmh 30.05 in1017.6 mb 0.00 in0.0 mm 0.00 in0.0 mm 0.01 in0.3 mm
05:32 PM 37.5°F3.1°C 29.0°F-1.7°C 71% 3.4 mph SW5.5 kmh SW 7.5 mph12.1 kmh 30.06 in1017.9 mb 0.00 in0.0 mm 0.00 in0.0 mm 0.01 in0.3 mm
05:37 PM 37.5°F3.1°C 28.7°F-1.8°C 70% 1.6 mph SW2.6 kmh SW 9.1 mph14.6 kmh 30.06 in1017.9 mb 0.00 in0.0 mm 0.00 in0.0 mm 0.01 in0.3 mm
05:42 PM 37.5°F3.1°C 28.7°F-1.8°C 70% 1.3 mph ENE2.1 kmh ENE 9.1 mph14.6 kmh 30.06 in1017.9 mb 0.00 in0.0 mm 0.00 in0.0 mm 0.01 in0.3 mm
05:47 PM 37.5°F3.1°C 28.7°F-1.8°C 70% Calm Calm 9.0 mph14.5 kmh 30.06 in1017.9 mb 0.00 in0.0 mm 0.00 in0.0 mm 0.01 in0.3 mm
05:52 PM 37.5°F3.1°C 29.0°F-1.7°C 71% 1.3 mph WSW2.1 kmh WSW 7.5 mph12.1 kmh 30.07 in1018.3 mb 0.00 in0.0 mm 0.00 in0.0 mm 0.01 in0.3 mm
05:57 PM 37.5°F3.1°C 29.4°F-1.4°C 72% 2.4 mph S3.9 kmh S 6.0 mph9.7 kmh 30.07 in1018.3 mb 0.00 in0.0 mm 0.00 in0.0 mm 0.01 in0.3 mm
06:02 PM 37.5°F3.1°C 29.0°F-1.7°C 71% 3.4 mph SW5.5 kmh SW 7.5 mph12.1 kmh 30.07 in1018.3 mb 0.00 in0.0 mm 0.00 in0.0 mm 0.01 in0.3 mm
06:07 PM 37.4°F3.0°C 29.3°F-1.5°C 72% 1.3 mph SW2.1 kmh SW 7.5 mph12.1 kmh 30.07 in1018.3 mb 0.00 in0.0 mm 0.00 in0.0 mm 0.01 in0.3 mm
06:12 PM 37.4°F3.0°C 29.3°F-1.5°C 72% 2.7 mph WNW4.3 kmh WNW 7.5 mph12.1 kmh 30.07 in1018.3 mb 0.00 in0.0 mm 0.00 in0.0 mm 0.01 in0.3 mm
06:17 PM 37.4°F3.0°C 29.6°F-1.3°C 73% 1.3 mph W2.1 kmh W 7.5 mph12.1 kmh 30.08 in1018.6 mb 0.00 in0.0 mm 0.00 in0.0 mm 0.01 in0.3 mm
06:22 PM 37.3°F2.9°C 29.2°F-1.6°C 72% 2.3 mph SW3.7 kmh SW 6.0 mph9.7 kmh 30.08 in1018.6 mb 0.00 in0.0 mm 0.00 in0.0 mm 0.01 in0.3 mm
06:27 PM 37.3°F2.9°C 28.8°F-1.8°C 71% 2.3 mph SW3.7 kmh SW 6.0 mph9.7 kmh 30.08 in1018.6 mb 0.00 in0.0 mm 0.00 in0.0 mm 0.01 in0.3 mm
06:32 PM 37.3°F2.9°C 29.2°F-1.6°C 72% 1.7 mph SW2.7 kmh SW 6.0 mph9.7 kmh 30.08 in1018.6 mb 0.00 in0.0 mm 0.00 in0.0 mm 0.01 in0.3 mm
06:37 PM 37.2°F2.9°C 29.1°F-1.6°C 72% 2.3 mph SW3.7 kmh SW 6.0 mph9.7 kmh 30.08 in1018.6 mb 0.00 in0.0 mm 0.00 in0.0 mm 0.01 in0.3 mm
06:42 PM 37.2°F2.9°C 29.4°F-1.4°C 73% 1.3 mph SW2.1 kmh SW 6.0 mph9.7 kmh 30.08 in1018.6 mb 0.00 in0.0 mm 0.00 in0.0 mm 0.01 in0.3 mm
06:47 PM 37.1°F2.8°C 29.3°F-1.5°C 73% 1.3 mph W2.1 kmh W 6.0 mph9.7 kmh 30.08 in1018.6 mb 0.00 in0.0 mm 0.00 in0.0 mm 0.01 in0.3 mm
06:52 PM 37.1°F2.8°C 29.3°F-1.5°C 73% 1.9 mph WSW3.1 kmh WSW 6.0 mph9.7 kmh 30.08 in1018.6 mb 0.00 in0.0 mm 0.00 in0.0 mm 0.01 in0.3 mm
06:57 PM 37.2°F2.9°C 29.4°F-1.4°C 73% 1.4 mph WSW2.3 kmh WSW 5.2 mph8.4 kmh 30.08 in1018.6 mb 0.00 in0.0 mm 0.00 in0.0 mm 0.01 in0.3 mm
07:02 PM 37.2°F2.9°C 29.1°F-1.6°C 72% 1.5 mph WSW2.4 kmh WSW 5.2 mph8.4 kmh 30.09 in1019.0 mb 0.00 in0.0 mm 0.00 in0.0 mm 0.01 in0.3 mm
07:07 PM 37.2°F2.9°C 29.4°F-1.4°C 73% 1.3 mph W2.1 kmh W 4.5 mph7.2 kmh 30.08 in1018.6 mb 0.00 in0.0 mm 0.00 in0.0 mm 0.01 in0.3 mm
07:12 PM 37.2°F2.9°C 29.4°F-1.4°C 73% 1.3 mph NW2.1 kmh NW 4.5 mph7.2 kmh 30.08 in1018.6 mb 0.00 in0.0 mm 0.00 in0.0 mm 0.01 in0.3 mm
07:17 PM 37.1°F2.8°C 29.3°F-1.5°C 73% 1.3 mph WSW2.1 kmh WSW 4.5 mph7.2 kmh 30.08 in1018.6 mb 0.00 in0.0 mm 0.00 in0.0 mm 0.01 in0.3 mm
07:22 PM 37.0°F2.8°C 29.2°F-1.6°C 73% Calm Calm 3.0 mph4.8 kmh 30.08 in1018.6 mb 0.00 in0.0 mm 0.00 in0.0 mm 0.01 in0.3 mm
07:27 PM 37.0°F2.8°C 29.9°F-1.2°C 75% 1.6 mph SW2.6 kmh SW 4.5 mph7.2 kmh 30.08 in1018.6 mb 0.00 in0.0 mm 0.00 in0.0 mm 0.01 in0.3 mm
07:32 PM 37.0°F2.8°C 29.2°F-1.6°C 73% 2.6 mph SW4.2 kmh SW 7.5 mph12.1 kmh 30.08 in1018.6 mb 0.00 in0.0 mm 0.00 in0.0 mm 0.01 in0.3 mm
07:37 PM 37.0°F2.8°C 28.9°F-1.7°C 72% 1.9 mph WSW3.1 kmh WSW 7.5 mph12.1 kmh 30.08 in1018.6 mb 0.00 in0.0 mm 0.00 in0.0 mm 0.01 in0.3 mm
07:42 PM 37.0°F2.8°C 28.9°F-1.7°C 72% 1.7 mph WSW2.7 kmh WSW 7.5 mph12.1 kmh 30.08 in1018.6 mb 0.00 in0.0 mm 0.00 in0.0 mm 0.01 in0.3 mm
07:47 PM 37.0°F2.8°C 29.2°F-1.6°C 73% 1.3 mph N2.1 kmh N 7.5 mph12.1 kmh 30.08 in1018.6 mb 0.00 in0.0 mm 0.00 in0.0 mm 0.01 in0.3 mm
07:52 PM 36.9°F2.7°C 28.8°F-1.8°C 72% 2.9 mph SW4.7 kmh SW 7.5 mph12.1 kmh 30.08 in1018.6 mb 0.00 in0.0 mm 0.00 in0.0 mm 0.01 in0.3 mm
07:57 PM 36.9°F2.7°C 29.4°F-1.4°C 74% 1.3 mph SW2.1 kmh SW 7.5 mph12.1 kmh 30.08 in1018.6 mb 0.00 in0.0 mm 0.00 in0.0 mm 0.01 in0.3 mm
08:02 PM 36.9°F2.7°C 29.4°F-1.4°C 74% 1.3 mph WNW2.1 kmh WNW 7.5 mph12.1 kmh 30.08 in1018.6 mb 0.00 in0.0 mm 0.00 in0.0 mm 0.01 in0.3 mm
08:07 PM 36.9°F2.7°C 29.4°F-1.4°C 74% 1.3 mph WSW2.1 kmh WSW 7.5 mph12.1 kmh 30.08 in1018.6 mb 0.00 in0.0 mm 0.00 in0.0 mm 0.01 in0.3 mm
08:12 PM 36.8°F2.7°C 29.0°F-1.7°C 73% 1.3 mph WSW2.1 kmh WSW 3.0 mph4.8 kmh 30.09 in1019.0 mb 0.00 in0.0 mm 0.00 in0.0 mm 0.01 in0.3 mm
08:17 PM 36.8°F2.7°C 29.0°F-1.7°C 73% 1.6 mph SW2.6 kmh SW 3.0 mph4.8 kmh 30.08 in1018.6 mb 0.00 in0.0 mm 0.00 in0.0 mm 0.01 in0.3 mm
08:22 PM 36.8°F2.7°C 28.7°F-1.8°C 72% 1.7 mph WSW2.7 kmh WSW 3.0 mph4.8 kmh 30.08 in1018.6 mb 0.00 in0.0 mm 0.00 in0.0 mm 0.01 in0.3 mm
08:27 PM 36.8°F2.7°C 29.0°F-1.7°C 73% 1.3 mph WSW2.1 kmh WSW 4.5 mph7.2 kmh 30.09 in1019.0 mb 0.00 in0.0 mm 0.00 in0.0 mm 0.01 in0.3 mm
08:32 PM 36.7°F2.6°C 28.9°F-1.7°C 73% 1.3 mph WSW2.1 kmh WSW 4.5 mph7.2 kmh 30.09 in1019.0 mb 0.00 in0.0 mm 0.00 in0.0 mm 0.01 in0.3 mm
08:37 PM 36.8°F2.7°C 29.3°F-1.5°C 74% 1.3 mph W2.1 kmh W 4.5 mph7.2 kmh 30.09 in1019.0 mb 0.00 in0.0 mm 0.00 in0.0 mm 0.01 in0.3 mm
08:42 PM 36.7°F2.6°C 28.6°F-1.9°C 72% 2.1 mph W3.4 kmh W 4.5 mph7.2 kmh 30.08 in1018.6 mb 0.00 in0.0 mm 0.00 in0.0 mm 0.01 in0.3 mm
08:47 PM 36.7°F2.6°C 28.9°F-1.7°C 73% 2.1 mph WSW3.4 kmh WSW 4.5 mph7.2 kmh 30.08 in1018.6 mb 0.00 in0.0 mm 0.00 in0.0 mm 0.01 in0.3 mm
08:52 PM 36.7°F2.6°C 28.9°F-1.7°C 73% 3.0 mph WSW4.8 kmh WSW 6.0 mph9.7 kmh 30.07 in1018.3 mb 0.00 in0.0 mm 0.00 in0.0 mm 0.01 in0.3 mm
08:57 PM 36.7°F2.6°C 28.9°F-1.7°C 73% 1.3 mph W2.1 kmh W 6.0 mph9.7 kmh 30.07 in1018.3 mb 0.00 in0.0 mm 0.00 in0.0 mm 0.01 in0.3 mm
09:02 PM 36.7°F2.6°C 28.9°F-1.7°C 73% 1.3 mph NE2.1 kmh NE 6.0 mph9.7 kmh 30.07 in1018.3 mb 0.00 in0.0 mm 0.00 in0.0 mm 0.01 in0.3 mm
09:07 PM 36.6°F2.6°C 28.8°F-1.8°C 73% 1.3 mph WSW2.1 kmh WSW 4.5 mph7.2 kmh 30.07 in1018.3 mb 0.00 in0.0 mm 0.00 in0.0 mm 0.01 in0.3 mm
09:12 PM 36.6°F2.6°C 28.5°F-1.9°C 72% 1.3 mph W2.1 kmh W 3.0 mph4.8 kmh 30.07 in1018.3 mb 0.00 in0.0 mm 0.00 in0.0 mm 0.01 in0.3 mm
09:17 PM 36.6°F2.6°C 28.8°F-1.8°C 73% Calm Calm 3.0 mph4.8 kmh 30.07 in1018.3 mb 0.00 in0.0 mm 0.00 in0.0 mm 0.01 in0.3 mm
09:22 PM 36.6°F2.6°C 28.8°F-1.8°C 73% Calm Calm 3.0 mph4.8 kmh 30.07 in1018.3 mb 0.00 in0.0 mm 0.00 in0.0 mm 0.01 in0.3 mm
09:27 PM 36.6°F2.6°C 28.5°F-1.9°C 72% 2.3 mph N3.7 kmh N 4.5 mph7.2 kmh 30.07 in1018.3 mb 0.00 in0.0 mm 0.00 in0.0 mm 0.01 in0.3 mm
09:32 PM 36.6°F2.6°C 28.8°F-1.8°C 73% Calm Calm 4.5 mph7.2 kmh 30.06 in1017.9 mb 0.00 in0.0 mm 0.00 in0.0 mm 0.01 in0.3 mm
09:37 PM 36.6°F2.6°C 28.5°F-1.9°C 72% 1.5 mph NNE2.4 kmh NNE 6.0 mph9.7 kmh 30.06 in1017.9 mb 0.00 in0.0 mm 0.00 in0.0 mm 0.01 in0.3 mm
09:43 PM 36.6°F2.6°C 28.5°F-1.9°C 72% 2.2 mph N3.5 kmh N 6.0 mph9.7 kmh 30.07 in1018.3 mb 0.00 in0.0 mm 0.00 in0.0 mm 0.01 in0.3 mm
09:47 PM 36.6°F2.6°C 28.4°F-2.0°C 72% 3.3 mph N5.3 kmh N 7.5 mph12.1 kmh 30.07 in1018.3 mb 0.00 in0.0 mm 0.00 in0.0 mm 0.01 in0.3 mm
09:53 PM 36.6°F2.6°C 28.5°F-1.9°C 72% 1.3 mph W2.1 kmh W 7.5 mph12.1 kmh 30.08 in1018.6 mb 0.00 in0.0 mm 0.00 in0.0 mm 0.01 in0.3 mm
09:58 PM 36.7°F2.6°C 28.2°F-2.1°C 71% 1.3 mph NNW2.1 kmh NNW 7.5 mph12.1 kmh 30.08 in1018.6 mb 0.00 in0.0 mm 0.00 in0.0 mm 0.01 in0.3 mm
10:03 PM 36.7°F2.6°C 27.9°F-2.3°C 70% 2.5 mph NW4.0 kmh NW 7.5 mph12.1 kmh 30.08 in1018.6 mb 0.00 in0.0 mm 0.00 in0.0 mm 0.01 in0.3 mm
10:08 PM 36.7°F2.6°C 27.6°F-2.4°C 69% 1.6 mph WNW2.6 kmh WNW 7.5 mph12.1 kmh 30.08 in1018.6 mb 0.00 in0.0 mm 0.00 in0.0 mm 0.01 in0.3 mm
10:13 PM 36.7°F2.6°C 27.5°F-2.5°C 69% 3.3 mph N5.3 kmh N 9.0 mph14.5 kmh 30.08 in1018.6 mb 0.00 in0.0 mm 0.00 in0.0 mm 0.01 in0.3 mm
10:18 PM 36.7°F2.6°C 27.9°F-2.3°C 70% 1.3 mph WNW2.1 kmh WNW 9.0 mph14.5 kmh 30.08 in1018.6 mb 0.00 in0.0 mm 0.00 in0.0 mm 0.01 in0.3 mm
10:23 PM 36.7°F2.6°C 27.6°F-2.4°C 69% 2.5 mph NNW4.0 kmh NNW 9.0 mph14.5 kmh 30.08 in1018.6 mb 0.00 in0.0 mm 0.00 in0.0 mm 0.01 in0.3 mm
10:28 PM 36.7°F2.6°C 27.9°F-2.3°C 70% 2.2 mph NNW3.5 kmh NNW 9.0 mph14.5 kmh 30.08 in1018.6 mb 0.00 in0.0 mm 0.00 in0.0 mm 0.01 in0.3 mm
10:33 PM 36.7°F2.6°C 27.8°F-2.3°C 70% 3.5 mph NNW5.6 kmh NNW 13.5 mph21.7 kmh 30.07 in1018.3 mb 0.00 in0.0 mm 0.00 in0.0 mm 0.01 in0.3 mm
10:38 PM 36.6°F2.6°C 27.4°F-2.6°C 69% 3.0 mph NNW4.8 kmh NNW 13.5 mph21.7 kmh 30.07 in1018.3 mb 0.00 in0.0 mm 0.00 in0.0 mm 0.01 in0.3 mm
10:43 PM 36.6°F2.6°C 27.5°F-2.5°C 69% 2.2 mph W3.5 kmh W 18.0 mph29.0 kmh 30.07 in1018.3 mb 0.00 in0.0 mm 0.00 in0.0 mm 0.01 in0.3 mm
10:48 PM 36.5°F2.5°C 27.4°F-2.6°C 69% 1.4 mph WSW2.3 kmh WSW 18.0 mph29.0 kmh 30.07 in1018.3 mb 0.00 in0.0 mm 0.00 in0.0 mm 0.01 in0.3 mm
10:53 PM 36.4°F2.4°C 27.6°F-2.4°C 70% 1.6 mph SW2.6 kmh SW 16.5 mph26.6 kmh 30.07 in1018.3 mb 0.00 in0.0 mm 0.00 in0.0 mm 0.01 in0.3 mm
10:58 PM 36.3°F2.4°C 27.4°F-2.6°C 70% 2.5 mph W4.0 kmh W 16.5 mph26.6 kmh 30.07 in1018.3 mb 0.00 in0.0 mm 0.00 in0.0 mm 0.01 in0.3 mm
11:03 PM 36.3°F2.4°C 27.5°F-2.5°C 70% 1.4 mph WNW2.3 kmh WNW 15.0 mph24.1 kmh 30.07 in1018.3 mb 0.00 in0.0 mm 0.00 in0.0 mm 0.01 in0.3 mm
11:08 PM 36.3°F2.4°C 27.9°F-2.3°C 71% 2.7 mph NNE4.3 kmh NNE 15.0 mph24.1 kmh 30.07 in1018.3 mb 0.00 in0.0 mm 0.00 in0.0 mm 0.01 in0.3 mm
11:13 PM 36.3°F2.4°C 27.5°F-2.5°C 70% 1.8 mph SW2.9 kmh SW 15.0 mph24.1 kmh 30.07 in1018.3 mb 0.00 in0.0 mm 0.00 in0.0 mm 0.01 in0.3 mm
11:18 PM 36.2°F2.3°C 27.7°F-2.4°C 71% 1.3 mph NW2.1 kmh NW 7.5 mph12.1 kmh 30.06 in1017.9 mb 0.00 in0.0 mm 0.00 in0.0 mm 0.01 in0.3 mm
11:23 PM 36.2°F2.3°C 28.0°F-2.2°C 72% 3.0 mph NNW4.8 kmh NNW 7.5 mph12.1 kmh 30.06 in1017.9 mb 0.00 in0.0 mm 0.00 in0.0 mm 0.01 in0.3 mm
11:28 PM 36.2°F2.3°C 27.4°F-2.6°C 70% 5.8 mph N9.3 kmh N 18.0 mph29.0 kmh 30.06 in1017.9 mb 0.00 in0.0 mm 0.00 in0.0 mm 0.01 in0.3 mm
11:33 PM 36.2°F2.3°C 27.8°F-2.3°C 71% 1.9 mph SW3.1 kmh SW 18.0 mph29.0 kmh 30.06 in1017.9 mb 0.00 in0.0 mm 0.00 in0.0 mm 0.01 in0.3 mm
11:38 PM 36.1°F2.3°C 27.7°F-2.4°C 71% 1.4 mph NNW2.3 kmh NNW 16.5 mph26.6 kmh 30.06 in1017.9 mb 0.00 in0.0 mm 0.00 in0.0 mm 0.01 in0.3 mm
11:43 PM 36.1°F2.3°C 27.6°F-2.4°C 71% 1.3 mph W2.1 kmh W 16.5 mph26.6 kmh 30.06 in1017.9 mb 0.00 in0.0 mm 0.00 in0.0 mm 0.01 in0.3 mm
11:48 PM 36.0°F2.2°C 27.5°F-2.5°C 71% 2.0 mph WSW3.2 kmh WSW 6.0 mph9.7 kmh 30.05 in1017.6 mb 0.00 in0.0 mm 0.00 in0.0 mm 0.01 in0.3 mm
11:53 PM 36.0°F2.2°C 27.5°F-2.5°C 71% 2.4 mph NNW3.9 kmh NNW 9.0 mph14.5 kmh 30.05 in1017.6 mb 0.00 in0.0 mm 0.00 in0.0 mm 0.01 in0.3 mm
11:58 PM 36.0°F2.2°C 27.9°F-2.3°C 72% 1.3 mph W2.1 kmh W 9.0 mph14.5 kmh 30.05 in1017.6 mb 0.00 in0.0 mm 0.00 in0.0 mm 0.01 in0.3 mm